createdAt,value
2018-12-20T00:01:20.748Z,7.54
2018-12-20T00:03:49.718Z,7.47
2018-12-20T00:06:18.813Z,7.62
2018-12-20T00:08:47.503Z,7.51
2018-12-20T00:11:16.192Z,7.57
2018-12-20T00:13:44.738Z,7.61
2018-12-20T00:16:13.646Z,7.54
2018-12-20T00:18:42.139Z,7.50
2018-12-20T00:21:11.005Z,7.62
2018-12-20T00:23:39.841Z,7.64
2018-12-20T00:26:08.523Z,7.67
2018-12-20T00:28:36.857Z,7.65
2018-12-20T00:31:05.272Z,7.66
2018-12-20T00:33:34.455Z,7.64
2018-12-20T00:36:03.056Z,7.67
2018-12-20T00:38:31.863Z,7.70
2018-12-20T00:41:00.278Z,7.56
2018-12-20T00:43:28.770Z,7.63
2018-12-20T00:45:57.335Z,7.57
2018-12-20T00:48:25.945Z,7.40
2018-12-20T00:50:54.824Z,7.37
2018-12-20T00:53:23.410Z,7.38
2018-12-20T00:55:51.763Z,7.36
2018-12-20T00:58:20.341Z,7.44
2018-12-20T01:00:48.783Z,7.37
2018-12-20T01:03:17.523Z,7.44
2018-12-20T01:05:45.924Z,7.51
2018-12-20T01:08:14.340Z,7.35
2018-12-20T01:10:42.883Z,7.44
2018-12-20T01:13:11.480Z,7.51
2018-12-20T01:15:40.373Z,7.47
2018-12-20T01:18:08.926Z,7.51
2018-12-20T01:20:37.606Z,7.68
2018-12-20T01:23:05.997Z,7.44
2018-12-20T01:25:34.404Z,7.42
2018-12-20T01:28:02.781Z,7.50
2018-12-20T01:30:31.657Z,7.51
2018-12-20T01:33:00.206Z,7.49
2018-12-20T01:35:28.860Z,7.39
2018-12-20T01:37:57.419Z,7.37
2018-12-20T01:40:25.811Z,7.34
2018-12-20T01:42:54.304Z,7.51
2018-12-20T01:45:22.971Z,7.44
2018-12-20T01:47:51.465Z,7.34
2018-12-20T01:50:19.894Z,7.40
2018-12-20T01:52:49.064Z,7.41
2018-12-20T01:55:18.096Z,7.29
2018-12-20T01:57:46.819Z,7.29
2018-12-20T02:00:15.477Z,7.15
2018-12-20T02:02:44.060Z,7.19
2018-12-20T02:05:12.663Z,6.98
2018-12-20T02:07:41.473Z,6.95
2018-12-20T02:10:10.208Z,7.02
2018-12-20T02:12:38.961Z,6.97
2018-12-20T02:15:07.947Z,7.09
2018-12-20T02:17:36.387Z,7.05
2018-12-20T02:20:06.273Z,7.04
2018-12-20T02:22:34.565Z,7.08
2018-12-20T02:25:03.756Z,7.16
2018-12-20T02:27:32.563Z,7.08
2018-12-20T02:30:01.160Z,7.13
2018-12-20T02:32:29.591Z,7.22
2018-12-20T02:34:58.067Z,7.23
2018-12-20T02:37:26.996Z,7.27
2018-12-20T02:39:55.378Z,7.23
2018-12-20T02:42:23.768Z,7.24
2018-12-20T02:44:52.633Z,7.28
2018-12-20T02:47:23.077Z,7.24
2018-12-20T02:49:51.386Z,7.23
2018-12-20T02:52:19.913Z,7.13
2018-12-20T02:54:48.435Z,7.22
2018-12-20T02:57:16.774Z,7.35
2018-12-20T02:59:45.068Z,7.39
2018-12-20T03:02:13.655Z,7.22
2018-12-20T03:04:42.180Z,7.23
2018-12-20T03:07:11.090Z,7.34
2018-12-20T03:09:39.835Z,7.36
2018-12-20T03:12:08.490Z,7.33
2018-12-20T03:14:37.803Z,7.25
2018-12-20T03:17:06.659Z,7.20
2018-12-20T03:19:35.278Z,7.07
2018-12-20T03:22:04.322Z,7.20
2018-12-20T03:24:33.434Z,7.15
2018-12-20T03:27:01.988Z,7.27
2018-12-20T03:29:30.594Z,6.93
2018-12-20T03:31:59.193Z,7.04
2018-12-20T03:34:27.606Z,7.10
2018-12-20T03:36:56.111Z,6.94
2018-12-20T03:39:24.473Z,6.91
2018-12-20T03:41:53.078Z,7.13
2018-12-20T03:44:21.494Z,7.08
2018-12-20T03:46:49.767Z,6.97
2018-12-20T03:49:18.320Z,7.14
2018-12-20T03:51:47.285Z,7.09
2018-12-20T03:54:15.976Z,7.07
2018-12-20T03:56:44.431Z,7.11
2018-12-20T03:59:12.959Z,7.17
2018-12-20T04:01:41.268Z,7.09
2018-12-20T04:04:10.366Z,7.17
2018-12-20T04:06:38.881Z,7.22
2018-12-20T04:09:07.680Z,7.09
2018-12-20T04:11:36.035Z,7.15
2018-12-20T04:14:04.640Z,7.18
2018-12-20T04:16:33.517Z,7.20
2018-12-20T04:19:02.096Z,7.28
2018-12-20T04:21:31.057Z,7.22
2018-12-20T04:23:59.796Z,7.19
2018-12-20T04:26:28.436Z,7.21
2018-12-20T04:28:56.762Z,7.28
2018-12-20T04:31:25.774Z,7.35
2018-12-20T04:33:54.397Z,7.32
2018-12-20T04:36:23.286Z,7.23
2018-12-20T04:38:52.581Z,7.25
2018-12-20T04:41:21.120Z,7.15
2018-12-20T04:43:50.586Z,7.08
2018-12-20T04:46:19.152Z,7.09
2018-12-20T04:48:47.813Z,7.13
2018-12-20T04:51:16.197Z,7.09
2018-12-20T04:53:45.071Z,7.07
2018-12-20T04:56:13.716Z,6.99
2018-12-20T04:58:42.358Z,6.95
2018-12-20T05:01:10.976Z,7.00
2018-12-20T05:03:39.743Z,7.02
2018-12-20T05:06:08.352Z,6.95
2018-12-20T05:08:37.131Z,6.94
2018-12-20T05:11:05.542Z,6.82
2018-12-20T05:13:33.940Z,6.82
2018-12-20T05:16:03.033Z,6.86
2018-12-20T05:18:31.453Z,6.82
2018-12-20T05:20:59.901Z,6.76
2018-12-20T05:23:28.666Z,6.80
2018-12-20T05:25:57.384Z,6.78
2018-12-20T05:28:26.166Z,6.79
2018-12-20T05:30:55.027Z,6.70
2018-12-20T05:33:23.570Z,6.78
2018-12-20T05:35:52.278Z,6.66
2018-12-20T05:38:20.917Z,6.84
2018-12-20T05:40:49.376Z,6.83
2018-12-20T05:43:17.872Z,6.79
2018-12-20T05:45:46.428Z,6.87
2018-12-20T05:48:15.140Z,6.94
2018-12-20T05:50:43.576Z,6.88
2018-12-20T05:53:11.974Z,6.90
2018-12-20T05:55:40.518Z,6.82
2018-12-20T05:58:09.248Z,6.84
2018-12-20T06:00:37.989Z,6.84
2018-12-20T06:03:06.618Z,6.82
2018-12-20T06:05:35.174Z,6.78
2018-12-20T06:08:04.309Z,6.85
2018-12-20T06:10:32.854Z,6.65
2018-12-20T06:13:01.324Z,6.67
2018-12-20T06:15:29.856Z,6.59
2018-12-20T06:17:58.250Z,6.59
2018-12-20T06:20:26.665Z,6.58
2018-12-20T06:22:55.193Z,6.71
2018-12-20T06:25:23.616Z,6.69
2018-12-20T06:27:52.066Z,6.65
2018-12-20T06:30:20.430Z,6.66
2018-12-20T06:32:49.510Z,6.74
2018-12-20T06:35:18.201Z,6.67
2018-12-20T06:37:47.056Z,6.69
2018-12-20T06:40:16.492Z,6.84
2018-12-20T06:42:45.200Z,6.71
2018-12-20T06:45:13.571Z,6.79
2018-12-20T06:47:41.995Z,6.79
2018-12-20T06:50:10.304Z,6.80
2018-12-20T06:52:38.781Z,6.82
2018-12-20T06:55:07.299Z,6.86
2018-12-20T06:57:35.794Z,6.88
2018-12-20T07:00:06.293Z,6.88
2018-12-20T07:02:34.970Z,6.93
2018-12-20T07:05:03.405Z,6.81
2018-12-20T07:07:34.812Z,6.81
2018-12-20T07:10:03.714Z,6.89
2018-12-20T07:12:32.499Z,6.87
2018-12-20T07:15:01.197Z,6.90
2018-12-20T07:17:29.600Z,6.86
2018-12-20T07:19:57.929Z,6.90
2018-12-20T07:22:26.739Z,6.96
2018-12-20T07:24:55.183Z,6.83
2018-12-20T07:27:23.642Z,6.90
2018-12-20T07:29:52.263Z,6.86
2018-12-20T07:32:25.188Z,6.97
2018-12-20T07:34:51.245Z,7.00
2018-12-20T07:37:19.538Z,6.95
2018-12-20T07:39:47.880Z,7.03
2018-12-20T07:42:16.381Z,7.04
2018-12-20T07:44:45.054Z,6.97
2018-12-20T07:47:13.513Z,7.11
2018-12-20T07:49:42.749Z,7.07
2018-12-20T07:52:11.051Z,6.97
2018-12-20T07:54:39.377Z,7.08
2018-12-20T07:57:08.129Z,7.08
2018-12-20T07:59:36.554Z,7.08
2018-12-20T08:02:04.995Z,7.09
2018-12-20T08:04:33.434Z,7.14
2018-12-20T08:07:01.845Z,7.21
2018-12-20T08:09:30.394Z,7.18
2018-12-20T08:11:58.775Z,7.16
2018-12-20T08:14:27.200Z,7.24
2018-12-20T08:16:55.494Z,7.18
2018-12-20T08:19:23.767Z,7.36
2018-12-20T08:21:52.320Z,7.36
2018-12-20T08:24:20.766Z,7.37
2018-12-20T08:26:49.234Z,7.37
2018-12-20T08:29:17.723Z,7.39
2018-12-20T08:31:46.171Z,7.20
2018-12-20T08:34:14.724Z,7.15
2018-12-20T08:36:43.359Z,7.30
2018-12-20T08:39:12.322Z,7.11
2018-12-20T08:41:40.854Z,7.18
2018-12-20T08:44:10.333Z,7.05
2018-12-20T08:46:40.832Z,7.18
2018-12-20T08:49:09.227Z,7.09
2018-12-20T08:51:37.676Z,7.05
2018-12-20T08:54:06.006Z,7.04
2018-12-20T08:56:34.990Z,7.10
2018-12-20T08:59:03.445Z,7.06
2018-12-20T09:01:31.770Z,7.08
2018-12-20T09:04:00.083Z,7.16
2018-12-20T09:06:28.461Z,7.16
2018-12-20T09:08:57.061Z,7.35
2018-12-20T09:11:25.435Z,7.60
2018-12-20T09:13:53.776Z,7.66
2018-12-20T09:16:22.061Z,7.60
2018-12-20T09:18:50.992Z,7.72
2018-12-20T09:21:19.435Z,7.63
2018-12-20T09:23:47.833Z,7.67
2018-12-20T09:26:16.103Z,7.64
2018-12-20T09:28:44.661Z,7.72
2018-12-20T09:31:13.344Z,7.70
2018-12-20T09:33:41.659Z,7.64
2018-12-20T09:36:09.958Z,7.61
2018-12-20T09:38:38.345Z,7.86
2018-12-20T09:41:06.902Z,7.83
2018-12-20T09:43:35.451Z,7.83
2018-12-20T09:46:03.896Z,7.75
2018-12-20T09:48:32.217Z,7.67
2018-12-20T09:51:00.984Z,7.78
2018-12-20T09:53:29.500Z,7.81
2018-12-20T09:55:58.016Z,7.81
2018-12-20T09:58:26.561Z,7.88
2018-12-20T10:00:55.251Z,7.94
2018-12-20T10:03:25.118Z,7.91
2018-12-20T10:05:53.823Z,7.83
2018-12-20T10:08:22.272Z,7.74
2018-12-20T10:10:51.063Z,7.88
2018-12-20T10:13:19.515Z,7.96
2018-12-20T10:15:47.961Z,7.74
2018-12-20T10:18:16.909Z,7.71
2018-12-20T10:23:31.553Z,7.86
2018-12-20T10:26:04.900Z,7.87
2018-12-20T10:28:33.419Z,7.90
2018-12-20T10:31:01.985Z,7.80
2018-12-20T10:33:30.643Z,7.89
2018-12-20T10:35:59.084Z,7.95
2018-12-20T10:38:27.399Z,8.00
2018-12-20T10:40:55.879Z,8.15
2018-12-20T10:43:24.253Z,7.93
2018-12-20T10:45:52.912Z,8.04
2018-12-20T10:48:21.365Z,8.21
2018-12-20T10:50:50.440Z,8.08
2018-12-20T10:53:18.885Z,8.25
2018-12-20T10:55:47.798Z,8.23
2018-12-20T10:58:16.230Z,8.19
2018-12-20T11:00:50.238Z,8.43
2018-12-20T11:03:24.185Z,8.28
2018-12-20T11:05:58.294Z,8.35
2018-12-20T11:08:28.761Z,8.50
2018-12-20T11:11:04.695Z,8.53
2018-12-20T11:13:33.046Z,8.62
2018-12-20T11:16:01.339Z,8.61
2018-12-20T11:18:30.295Z,8.54
2018-12-20T11:20:58.597Z,8.59
2018-12-20T11:23:26.924Z,8.42
2018-12-20T11:25:55.210Z,8.82
2018-12-20T11:28:24.299Z,8.62
2018-12-20T11:30:52.599Z,8.52
2018-12-20T11:33:21.218Z,8.76
2018-12-20T11:35:49.770Z,8.62
2018-12-20T11:38:18.250Z,8.60
2018-12-20T11:40:46.745Z,8.48
2018-12-20T11:43:20.098Z,8.40
2018-12-20T11:45:48.695Z,8.46
2018-12-20T11:48:17.116Z,8.64
2018-12-20T11:50:45.524Z,8.53
2018-12-20T11:53:14.710Z,8.54
2018-12-20T11:55:42.989Z,8.47
2018-12-20T11:58:11.521Z,8.29
2018-12-20T12:00:40.043Z,8.50
2018-12-20T12:03:08.626Z,8.44
2018-12-20T12:05:37.038Z,8.54
2018-12-20T12:08:05.578Z,8.54
2018-12-20T12:10:34.160Z,8.73
2018-12-20T12:13:02.536Z,8.66
2018-12-20T12:15:30.875Z,8.67
2018-12-20T12:17:59.165Z,8.75
2018-12-20T12:20:27.737Z,8.62
2018-12-20T12:22:56.358Z,8.71
2018-12-20T12:25:24.785Z,8.57
2018-12-20T12:27:53.070Z,8.48
2018-12-20T12:30:21.384Z,8.70
2018-12-20T12:32:49.744Z,8.65
2018-12-20T12:35:18.196Z,8.67
2018-12-20T12:37:46.843Z,8.66
2018-12-20T12:40:15.189Z,8.87
2018-12-20T12:42:43.968Z,8.62
2018-12-20T12:45:12.378Z,8.61
2018-12-20T12:47:46.215Z,8.67
2018-12-20T12:50:14.898Z,8.64
2018-12-20T12:52:43.408Z,8.71
2018-12-20T12:55:11.825Z,8.71
2018-12-20T12:57:40.271Z,8.69
2018-12-20T13:00:13.597Z,8.69
2018-12-20T13:02:41.971Z,8.59
2018-12-20T13:05:10.247Z,8.59
2018-12-20T13:07:38.637Z,8.63
2018-12-20T13:10:07.908Z,8.60
2018-12-20T13:12:36.242Z,8.71
2018-12-20T13:15:08.682Z,8.49
2018-12-20T13:17:37.217Z,8.70
2018-12-20T13:20:09.066Z,8.65
2018-12-20T13:22:37.587Z,8.60
2018-12-20T13:25:07.060Z,8.61
2018-12-20T13:27:40.830Z,8.69
2018-12-20T13:30:10.560Z,8.48
2018-12-20T13:32:44.275Z,8.62
2018-12-20T13:35:12.718Z,8.61
2018-12-20T13:37:41.026Z,8.64
2018-12-20T13:40:09.618Z,8.60
2018-12-20T13:42:38.323Z,8.54
2018-12-20T13:45:07.110Z,8.63
2018-12-20T13:47:35.639Z,8.53
2018-12-20T13:50:06.545Z,8.55
2018-12-20T13:52:35.389Z,8.56
2018-12-20T13:55:04.256Z,8.68
2018-12-20T13:57:32.944Z,8.67
2018-12-20T14:00:01.859Z,8.73
2018-12-20T14:02:30.237Z,8.64
2018-12-20T14:04:59.577Z,8.81
2018-12-20T14:07:27.884Z,8.78
2018-12-20T14:09:56.646Z,8.62
2018-12-20T14:12:25.052Z,8.60
2018-12-20T14:14:53.562Z,8.51
2018-12-20T14:17:22.003Z,8.62
2018-12-20T14:19:50.411Z,8.71
2018-12-20T14:22:18.727Z,8.67
2018-12-20T14:24:47.383Z,8.62
2018-12-20T14:27:16.070Z,8.58
2018-12-20T14:29:44.624Z,8.54
2018-12-20T14:32:12.889Z,8.48
2018-12-20T14:34:41.337Z,8.45
2018-12-20T14:37:09.701Z,8.52
2018-12-20T14:39:38.569Z,8.48
2018-12-20T14:42:06.873Z,8.46
2018-12-20T14:44:35.252Z,8.50
2018-12-20T14:47:03.706Z,8.40
2018-12-20T14:49:32.252Z,8.34
2018-12-20T14:52:00.729Z,8.27
2018-12-20T14:54:29.074Z,8.19
2018-12-20T14:56:57.463Z,8.28
2018-12-20T14:59:25.933Z,8.40
2018-12-20T15:01:54.507Z,8.30
2018-12-20T15:04:23.180Z,8.37
2018-12-20T15:06:51.960Z,8.30
2018-12-20T15:09:20.467Z,8.39
2018-12-20T15:11:48.908Z,8.23
2018-12-20T15:14:17.212Z,8.32
2018-12-20T15:16:45.519Z,8.39
2018-12-20T15:19:13.819Z,8.25
2018-12-20T15:21:42.412Z,8.23
2018-12-20T15:24:10.954Z,8.26
2018-12-20T15:26:39.568Z,8.31
2018-12-20T15:29:08.100Z,8.39
2018-12-20T15:31:36.681Z,8.28
2018-12-20T15:34:05.056Z,8.23
2018-12-20T15:36:33.386Z,8.28
2018-12-20T15:39:01.663Z,8.20
2018-12-20T15:41:30.027Z,8.27
2018-12-20T15:43:59.116Z,8.12
2018-12-20T15:46:27.459Z,8.28
2018-12-20T15:49:02.306Z,8.21
2018-12-20T15:51:31.547Z,8.17
2018-12-20T15:54:01.225Z,8.30
2018-12-20T15:56:29.825Z,8.26
2018-12-20T15:58:58.130Z,8.25
2018-12-20T16:01:26.654Z,8.23
2018-12-20T16:03:54.998Z,8.19
2018-12-20T16:06:23.526Z,8.22
2018-12-20T16:08:52.131Z,8.22
2018-12-20T16:11:20.645Z,8.32
2018-12-20T16:13:48.985Z,8.29
2018-12-20T16:16:17.357Z,8.32
2018-12-20T16:18:45.859Z,8.19
2018-12-20T16:21:14.232Z,8.20
2018-12-20T16:23:42.562Z,8.11
2018-12-20T16:26:10.880Z,8.26
2018-12-20T16:28:44.477Z,8.29
2018-12-20T16:31:13.090Z,8.23
2018-12-20T16:33:41.412Z,8.18
2018-12-20T16:36:09.872Z,8.17
2018-12-20T16:38:38.168Z,8.20
2018-12-20T16:41:07.186Z,8.13
2018-12-20T16:43:35.485Z,8.23
2018-12-20T16:46:03.815Z,8.13
2018-12-20T16:48:32.114Z,8.10
2018-12-20T16:51:00.408Z,8.06
2018-12-20T16:53:29.634Z,7.93
2018-12-20T16:55:57.984Z,7.87
2018-12-20T16:58:26.320Z,7.92
2018-12-20T17:00:54.898Z,7.89
2018-12-20T17:03:23.283Z,7.86
2018-12-20T17:05:51.778Z,7.89
2018-12-20T17:08:20.923Z,7.77
2018-12-20T17:10:49.665Z,7.74
2018-12-20T17:13:18.089Z,7.75
2018-12-20T17:15:46.600Z,7.61
2018-12-20T17:18:14.874Z,7.66
2018-12-20T17:20:43.264Z,7.70
2018-12-20T17:23:11.725Z,7.63
2018-12-20T17:25:40.031Z,7.76
2018-12-20T17:28:08.647Z,7.50
2018-12-20T17:30:36.968Z,7.70
2018-12-20T17:33:05.388Z,7.54
2018-12-20T17:35:33.689Z,7.64
2018-12-20T17:38:02.180Z,7.60
2018-12-20T17:40:30.501Z,7.50
2018-12-20T17:42:59.097Z,7.42
2018-12-20T17:45:27.404Z,7.50
2018-12-20T17:47:55.739Z,7.36
2018-12-20T17:50:24.713Z,7.48
2018-12-20T17:52:53.667Z,7.52
2018-12-20T17:55:22.312Z,7.59
2018-12-20T17:57:50.779Z,7.68
2018-12-20T18:00:19.206Z,7.52
2018-12-20T18:02:47.727Z,7.52
2018-12-20T18:05:16.023Z,7.47
2018-12-20T18:07:44.495Z,7.55
2018-12-20T18:10:12.790Z,7.58
2018-12-20T18:12:41.275Z,7.54
2018-12-20T18:15:10.271Z,7.51
2018-12-20T18:17:38.697Z,7.46
2018-12-20T18:20:08.676Z,7.63
2018-12-20T18:22:37.486Z,7.56
2018-12-20T18:25:06.386Z,7.71
2018-12-20T18:27:34.888Z,7.54
2018-12-20T18:30:04.220Z,7.61
2018-12-20T18:32:32.754Z,7.55
2018-12-20T18:35:01.352Z,7.69
2018-12-20T18:37:29.806Z,7.52
2018-12-20T18:39:58.581Z,7.64
2018-12-20T18:42:27.014Z,7.49
2018-12-20T18:44:55.377Z,7.42
2018-12-20T18:47:23.784Z,7.46
2018-12-20T18:49:52.095Z,7.42
2018-12-20T18:52:20.674Z,7.35
2018-12-20T18:54:49.034Z,7.49
2018-12-20T18:57:17.422Z,7.34
2018-12-20T18:59:45.779Z,7.60
2018-12-20T19:02:14.262Z,7.35
2018-12-20T19:04:42.699Z,7.51
2018-12-20T19:07:11.120Z,7.56
2018-12-20T19:09:39.405Z,7.58
2018-12-20T19:12:07.935Z,7.57
2018-12-20T19:14:36.220Z,7.39
2018-12-20T19:17:04.581Z,7.62
2018-12-20T19:19:33.103Z,7.67
2018-12-20T19:22:01.939Z,7.55
2018-12-20T19:24:30.250Z,7.64
2018-12-20T19:26:58.799Z,7.63
2018-12-20T19:29:27.212Z,7.73
2018-12-20T19:31:55.656Z,7.72
2018-12-20T19:34:24.069Z,7.49
2018-12-20T19:36:52.458Z,7.61
2018-12-20T19:39:21.748Z,7.58
2018-12-20T19:41:50.416Z,7.70
2018-12-20T19:44:18.975Z,7.64
2018-12-20T19:46:47.304Z,7.68
2018-12-20T19:49:15.809Z,7.53
2018-12-20T19:51:44.236Z,7.81
2018-12-20T19:54:12.761Z,7.58
2018-12-20T19:56:41.228Z,7.50
2018-12-20T19:59:10.450Z,7.60
2018-12-20T20:01:39.391Z,7.42
2018-12-20T20:04:07.933Z,7.55
2018-12-20T20:06:36.383Z,7.68
2018-12-20T20:09:07.177Z,7.58
2018-12-20T20:11:35.664Z,7.60
2018-12-20T20:14:04.869Z,7.53
2018-12-20T20:16:33.411Z,7.54
2018-12-20T20:19:01.938Z,7.49
2018-12-20T20:21:30.280Z,7.41
2018-12-20T20:23:59.466Z,7.53
2018-12-20T20:26:27.986Z,7.36
2018-12-20T20:28:56.437Z,7.44
2018-12-20T20:31:25.118Z,7.38
2018-12-20T20:33:53.648Z,7.29
2018-12-20T20:36:21.982Z,7.40
2018-12-20T20:38:50.771Z,7.39
2018-12-20T20:41:19.170Z,7.37
2018-12-20T20:43:47.542Z,7.42
2018-12-20T20:46:15.932Z,7.47
2018-12-20T20:48:45.316Z,7.32
2018-12-20T20:51:14.124Z,7.34
2018-12-20T20:53:42.616Z,7.44
2018-12-20T20:56:11.032Z,7.35
2018-12-20T20:58:39.494Z,7.39
2018-12-20T21:01:08.034Z,7.53
2018-12-20T21:03:36.957Z,7.58
2018-12-20T21:06:05.525Z,7.35
2018-12-20T21:08:33.852Z,7.45
2018-12-20T21:11:07.715Z,7.50
2018-12-20T21:13:36.037Z,7.54
2018-12-20T21:16:04.456Z,7.50
2018-12-20T21:18:32.738Z,7.48
2018-12-20T21:21:01.084Z,7.35
2018-12-20T21:23:29.840Z,7.45
2018-12-20T21:25:58.328Z,7.40
2018-12-20T21:28:26.677Z,7.47
2018-12-20T21:30:55.043Z,7.61
2018-12-20T21:33:23.366Z,7.45
2018-12-20T21:35:51.790Z,7.43
2018-12-20T21:38:20.499Z,7.49
2018-12-20T21:40:48.995Z,7.42
2018-12-20T21:43:17.350Z,7.14
2018-12-20T21:45:45.844Z,7.40
2018-12-20T21:48:15.068Z,7.53
2018-12-20T21:50:43.879Z,7.49
2018-12-20T21:53:12.764Z,7.43
2018-12-20T21:55:41.101Z,7.47
2018-12-20T21:58:09.566Z,7.56
2018-12-20T22:00:37.923Z,7.47
2018-12-20T22:03:06.336Z,7.51
2018-12-20T22:05:35.471Z,7.58
2018-12-20T22:08:04.206Z,7.32
2018-12-20T22:10:32.578Z,7.51
2018-12-20T22:13:02.416Z,7.72
2018-12-20T22:15:31.036Z,7.62
2018-12-20T22:17:59.398Z,7.59
2018-12-20T22:20:28.607Z,7.63
2018-12-20T22:22:56.943Z,7.58
2018-12-20T22:25:25.270Z,7.70
2018-12-20T22:27:54.170Z,7.65
2018-12-20T22:30:22.662Z,7.66
2018-12-20T22:32:50.986Z,7.49
2018-12-20T22:35:19.336Z,7.71
2018-12-20T22:37:48.323Z,7.63
2018-12-20T22:40:17.175Z,7.60
2018-12-20T22:42:45.684Z,7.57
2018-12-20T22:45:15.059Z,7.55
2018-12-20T22:47:43.768Z,7.50
2018-12-20T22:50:12.322Z,7.58
2018-12-20T22:52:40.764Z,7.55
2018-12-20T22:55:09.257Z,7.66
2018-12-20T22:57:37.813Z,7.61
2018-12-20T23:00:07.357Z,7.65
2018-12-20T23:02:35.644Z,7.82
2018-12-20T23:05:05.038Z,7.67
2018-12-20T23:07:33.641Z,7.72
2018-12-20T23:10:02.075Z,7.64
2018-12-20T23:12:30.469Z,7.66
2018-12-20T23:14:58.782Z,7.69
2018-12-20T23:17:27.055Z,7.64
2018-12-20T23:19:55.389Z,7.75
2018-12-20T23:22:23.700Z,7.70
2018-12-20T23:24:52.045Z,7.72
2018-12-20T23:27:20.632Z,7.70
2018-12-20T23:29:48.924Z,7.72
2018-12-20T23:32:17.417Z,7.56
2018-12-20T23:34:45.700Z,7.44
2018-12-20T23:37:14.123Z,7.41
2018-12-20T23:39:42.552Z,7.49
2018-12-20T23:42:10.998Z,7.51
2018-12-20T23:44:39.279Z,7.52
2018-12-20T23:47:07.765Z,7.56
2018-12-20T23:49:36.162Z,7.59
2018-12-20T23:52:04.492Z,7.57
2018-12-20T23:54:32.778Z,7.48
2018-12-20T23:57:01.894Z,7.51
2018-12-20T23:59:30.176Z,7.60
